createdAt,value
2019-05-21T00:01:57.927Z,96544.81
2019-05-21T00:06:59.612Z,96536.80
2019-05-21T00:12:01.282Z,96532.75
2019-05-21T00:17:03.017Z,96536.51
2019-05-21T00:22:04.500Z,96537.38
2019-05-21T00:27:05.974Z,96529.32
2019-05-21T00:33:03.704Z,96523.89
2019-05-21T00:39:01.500Z,96521.03
2019-05-21T00:44:05.527Z,96521.12
2019-05-21T00:49:07.036Z,96516.50
2019-05-21T00:54:08.614Z,96515.88
2019-05-21T00:59:10.086Z,96512.02
2019-05-21T01:04:12.059Z,96511.12
2019-05-21T01:09:13.535Z,96508.45
2019-05-21T01:14:15.283Z,96506.02
2019-05-21T01:19:16.850Z,96502.25
2019-05-21T01:24:18.440Z,96512.63
2019-05-21T01:29:20.020Z,96513.16
2019-05-21T01:34:21.497Z,96505.77
2019-05-21T01:39:23.094Z,96507.20
2019-05-21T01:44:24.606Z,96500.34
2019-05-21T01:49:26.128Z,96499.44
2019-05-21T01:54:27.595Z,96497.33
2019-05-21T01:59:29.074Z,96486.87
2019-05-21T02:04:30.542Z,96491.64
2019-05-21T02:09:33.937Z,96481.97
2019-05-21T02:14:35.451Z,96485.07
2019-05-21T02:19:36.928Z,96483.27
2019-05-21T02:24:38.402Z,96486.31
2019-05-21T02:29:39.880Z,96485.31
2019-05-21T02:34:41.373Z,96485.80
2019-05-21T02:39:42.834Z,96474.30
2019-05-21T02:44:44.352Z,96471.68
2019-05-21T02:49:46.042Z,96474.69
2019-05-21T02:54:47.508Z,96476.84
2019-05-21T02:59:50.987Z,96479.31
2019-05-21T03:04:52.462Z,96479.55
2019-05-21T03:09:54.040Z,96479.92
2019-05-21T03:14:55.663Z,96485.93
2019-05-21T03:19:57.130Z,96493.55
2019-05-21T03:25:02.031Z,96492.84
2019-05-21T03:30:05.138Z,96499.84
2019-05-21T03:35:08.618Z,96504.13
2019-05-21T03:40:10.492Z,96505.47
2019-05-21T03:45:13.115Z,96504.88
2019-05-21T03:50:15.032Z,96513.22
2019-05-21T03:55:16.613Z,96515.23
2019-05-21T04:00:18.694Z,96519.83
2019-05-21T04:05:24.009Z,96521.83
2019-05-21T04:10:25.877Z,96523.87
2019-05-21T04:15:29.311Z,96530.87
2019-05-21T04:20:30.784Z,96528.75
2019-05-21T04:25:32.261Z,96530.91
2019-05-21T04:30:33.932Z,96532.42
2019-05-21T04:35:35.417Z,96540.58
2019-05-21T04:40:37.999Z,96542.53
2019-05-21T04:45:39.568Z,96540.65
2019-05-21T04:50:41.049Z,96536.98
2019-05-21T04:55:42.516Z,96525.61
2019-05-21T05:00:44.089Z,96526.72
2019-05-21T05:05:45.673Z,96516.74
2019-05-21T05:10:49.273Z,96515.56
2019-05-21T05:15:50.672Z,96514.04
2019-05-21T05:20:52.243Z,96513.18
2019-05-21T05:25:53.719Z,96508.77
2019-05-21T05:30:55.305Z,96512.00
2019-05-21T05:35:56.785Z,96515.69
2019-05-21T05:40:58.258Z,96513.34
2019-05-21T05:45:59.999Z,96516.77
2019-05-21T05:51:06.562Z,96521.94
2019-05-21T05:56:08.037Z,96518.52
2019-05-21T06:01:09.519Z,96520.52
2019-05-21T06:06:10.995Z,96516.13
2019-05-21T06:11:12.584Z,96518.17
2019-05-21T06:16:14.100Z,96519.21
2019-05-21T06:21:33.824Z,96519.21
2019-05-21T06:26:35.465Z,96526.90
2019-05-21T06:31:38.108Z,96527.47
2019-05-21T06:36:39.688Z,96525.73
2019-05-21T06:41:41.283Z,96532.42
2019-05-21T06:46:42.767Z,96528.41
2019-05-21T06:51:45.356Z,96533.63
2019-05-21T06:56:46.832Z,96537.12
2019-05-21T07:01:48.361Z,96530.22
2019-05-21T07:06:50.153Z,96526.55
2019-05-21T07:11:51.985Z,96527.19
2019-05-21T07:16:53.485Z,96535.05
2019-05-21T07:22:11.163Z,96538.08
2019-05-21T07:26:58.964Z,96548.09
2019-05-21T07:32:00.510Z,96547.48
2019-05-21T07:37:02.008Z,96541.97
2019-05-21T07:42:03.951Z,96535.58
2019-05-21T07:47:05.939Z,96537.94
2019-05-21T07:52:07.476Z,96524.38
2019-05-21T07:57:09.051Z,96527.87
2019-05-21T08:02:10.714Z,96536.61
2019-05-21T08:07:12.400Z,96538.32
2019-05-21T08:12:35.527Z,96531.86
2019-05-21T08:17:17.287Z,96529.01
2019-05-21T08:22:18.819Z,96529.94
2019-05-21T08:27:20.390Z,96522.59
2019-05-21T08:32:21.878Z,96523.86
2019-05-21T08:37:23.467Z,96522.74
2019-05-21T08:42:25.070Z,96528.23
2019-05-21T08:47:26.703Z,96517.48
2019-05-21T08:52:28.532Z,96520.05
2019-05-21T08:57:30.007Z,96519.23
2019-05-21T09:02:31.537Z,96518.06
2019-05-21T09:07:33.408Z,96516.45
2019-05-21T09:12:35.297Z,96512.39
2019-05-21T09:17:36.866Z,96514.47
2019-05-21T09:22:38.405Z,96512.95
2019-05-21T09:27:40.339Z,96512.55
2019-05-21T09:32:41.924Z,96511.38
2019-05-21T09:37:43.512Z,96507.61
2019-05-21T09:42:45.606Z,96511.31
2019-05-21T09:47:47.372Z,96504.86
2019-05-21T09:52:49.507Z,96506.89
2019-05-21T09:57:55.933Z,96500.92
2019-05-21T10:02:57.517Z,96501.89
2019-05-21T10:07:59.183Z,96491.67
2019-05-21T10:13:00.658Z,96498.16
2019-05-21T10:18:02.503Z,96491.59
2019-05-21T10:23:04.079Z,96495.34
2019-05-21T10:28:05.827Z,96494.84
2019-05-21T10:33:07.418Z,96486.20
2019-05-21T10:38:08.985Z,96482.19
2019-05-21T10:43:10.581Z,96485.08
2019-05-21T10:48:12.260Z,96485.16
2019-05-21T10:53:13.994Z,96485.22
2019-05-21T10:58:15.819Z,96474.72
2019-05-21T11:03:22.044Z,96471.82
2019-05-21T11:08:25.103Z,96471.42
2019-05-21T11:13:27.157Z,96478.80
2019-05-21T11:18:28.720Z,96481.23
2019-05-21T11:23:30.201Z,96478.05
2019-05-21T11:28:31.757Z,96473.77
2019-05-21T11:33:33.298Z,96477.08
2019-05-21T11:38:39.862Z,96475.14
2019-05-21T11:43:38.488Z,96475.73
2019-05-21T11:48:40.071Z,96472.42
2019-05-21T11:53:41.547Z,96475.08
2019-05-21T11:58:43.122Z,96473.73
2019-05-21T12:03:44.624Z,96467.73
2019-05-21T12:08:56.335Z,96471.42
2019-05-21T12:13:49.812Z,96465.33
2019-05-21T12:18:51.422Z,96465.83
2019-05-21T12:23:53.079Z,96461.92
2019-05-21T12:28:55.474Z,96469.20
2019-05-21T12:33:56.973Z,96465.10
2019-05-21T12:39:13.136Z,96461.09
2019-05-21T12:44:02.475Z,96447.78
2019-05-21T12:49:05.252Z,96449.87
2019-05-21T12:54:06.843Z,96437.46
2019-05-21T12:59:08.480Z,96434.05
2019-05-21T13:04:10.080Z,96437.51
2019-05-21T13:09:11.911Z,96435.88
2019-05-21T13:14:18.243Z,96437.09
2019-05-21T13:19:17.141Z,96433.39
2019-05-21T13:24:18.812Z,96426.91
2019-05-21T13:29:21.122Z,96420.11
2019-05-21T13:34:22.768Z,96419.60
2019-05-21T13:39:25.768Z,96414.98
2019-05-21T13:44:27.590Z,96418.31
2019-05-21T13:49:29.116Z,96417.37
2019-05-21T13:54:30.680Z,96415.11
2019-05-21T13:59:32.457Z,96412.85
2019-05-21T14:04:34.085Z,96409.85
2019-05-21T14:09:35.923Z,96410.05
2019-05-21T14:14:37.731Z,96405.28
2019-05-21T14:19:39.257Z,96405.92
2019-05-21T14:24:40.732Z,96408.40
2019-05-21T14:29:42.212Z,96405.02
2019-05-21T14:34:58.649Z,96411.30
2019-05-21T14:39:47.268Z,96411.30
2019-05-21T14:44:48.849Z,96411.73
2019-05-21T14:49:50.353Z,96414.81
2019-05-21T14:54:51.840Z,96419.05
2019-05-21T14:59:53.328Z,96408.43
2019-05-21T15:04:54.999Z,96401.39
2019-05-21T15:09:56.860Z,96401.86
2019-05-21T15:14:58.370Z,96395.13
2019-05-21T15:20:01.786Z,96399.12
2019-05-21T15:25:05.058Z,96403.13
2019-05-21T15:30:07.541Z,96412.14
2019-05-21T15:35:09.476Z,96408.91
2019-05-21T15:40:12.158Z,96409.08
2019-05-21T15:45:14.437Z,96412.09
2019-05-21T15:50:16.358Z,96405.53
2019-05-21T15:55:18.067Z,96392.81
2019-05-21T16:00:21.564Z,96395.84
2019-05-21T16:05:23.432Z,96391.23
2019-05-21T16:10:25.121Z,96385.17
2019-05-21T16:15:26.735Z,96367.56
2019-05-21T16:20:28.582Z,96370.98
2019-05-21T16:25:30.265Z,96368.13
2019-05-21T16:30:31.974Z,96364.44
2019-05-21T16:35:33.528Z,96363.05
2019-05-21T16:40:35.364Z,96368.07
2019-05-21T16:45:36.844Z,96363.12
2019-05-21T16:50:38.474Z,96359.56
2019-05-21T16:55:40.047Z,96354.09
2019-05-21T17:00:41.972Z,96348.75
2019-05-21T17:05:43.442Z,96347.53
2019-05-21T17:10:45.133Z,96340.40
2019-05-21T17:15:46.603Z,96352.42
2019-05-21T17:20:48.200Z,96354.91
2019-05-21T17:25:49.782Z,96351.02
2019-05-21T17:30:51.402Z,96352.16
2019-05-21T17:35:52.883Z,96343.61
2019-05-21T17:40:55.100Z,96329.70
2019-05-21T17:45:56.686Z,96320.81
2019-05-21T17:50:58.543Z,96338.91
2019-05-21T17:56:00.220Z,96341.05
2019-05-21T18:01:04.239Z,96335.78
2019-05-21T18:06:06.591Z,96330.83
2019-05-21T18:11:08.666Z,96324.51
2019-05-21T18:16:11.453Z,96326.24
2019-05-21T18:21:13.226Z,96320.97
2019-05-21T18:26:14.974Z,96332.47
2019-05-21T18:31:17.207Z,96349.48
2019-05-21T18:36:18.909Z,96380.89
2019-05-21T18:41:20.601Z,96384.45
2019-05-21T18:46:22.194Z,96402.73
2019-05-21T18:51:23.919Z,96408.56
2019-05-21T18:56:25.894Z,96417.73
2019-05-21T19:01:27.996Z,96434.84
2019-05-21T19:06:29.663Z,96420.34
2019-05-21T19:11:31.454Z,96407.28
2019-05-21T19:16:33.135Z,96402.13
2019-05-21T19:21:34.867Z,96402.19
2019-05-21T19:26:36.442Z,96414.98
2019-05-21T19:31:38.113Z,96409.31
2019-05-21T19:36:39.704Z,96407.07
2019-05-21T19:41:41.493Z,96441.63
2019-05-21T19:46:43.304Z,96434.95
2019-05-21T19:51:44.931Z,96418.60
2019-05-21T19:56:46.521Z,96412.60
2019-05-21T20:01:50.005Z,96407.32
2019-05-21T20:06:51.687Z,96406.76
2019-05-21T20:11:53.489Z,96411.11
2019-05-21T20:16:55.296Z,96419.51
2019-05-21T20:21:57.855Z,96413.55
2019-05-21T20:26:59.531Z,96415.23
2019-05-21T20:32:01.518Z,96404.98
2019-05-21T20:37:05.244Z,96413.73
2019-05-21T20:42:09.516Z,96404.88
2019-05-21T20:47:12.885Z,96396.26
2019-05-21T20:52:18.901Z,96408.69
2019-05-21T20:57:20.394Z,96401.41
2019-05-21T21:02:23.386Z,96402.17
2019-05-21T21:07:25.116Z,96394.02
2019-05-21T21:12:26.865Z,96396.69
2019-05-21T21:17:28.585Z,96381.20
2019-05-21T21:22:30.506Z,96375.67
2019-05-21T21:27:32.407Z,96365.09
2019-05-21T21:32:35.520Z,96353.37
2019-05-21T21:37:37.758Z,96348.60
2019-05-21T21:42:40.897Z,96357.41
2019-05-21T21:47:43.079Z,96345.50
2019-05-21T21:52:45.315Z,96339.48
2019-05-21T21:57:46.807Z,96330.47
2019-05-21T22:02:48.376Z,96314.59
2019-05-21T22:07:50.945Z,96307.53
2019-05-21T22:12:52.927Z,96316.35
2019-05-21T22:17:54.707Z,96315.54
2019-05-21T22:22:57.370Z,96307.39
2019-05-21T22:27:59.058Z,96313.25
2019-05-21T22:33:00.650Z,96316.88
2019-05-21T22:38:02.482Z,96319.87
2019-05-21T22:43:04.283Z,96308.34
2019-05-21T22:48:05.980Z,96304.86
2019-05-21T22:53:08.303Z,96303.00
2019-05-21T22:58:10.289Z,96291.91
2019-05-21T23:03:12.597Z,96303.78
2019-05-21T23:08:16.366Z,96295.50
2019-05-21T23:13:17.831Z,96306.37
2019-05-21T23:18:20.046Z,96298.85
2019-05-21T23:23:43.993Z,96298.72
2019-05-21T23:28:45.870Z,96297.63
2019-05-21T23:33:49.344Z,96299.02
2019-05-21T23:38:51.275Z,96282.25
2019-05-21T23:43:53.072Z,96297.81
2019-05-21T23:48:54.736Z,96298.06
2019-05-21T23:53:57.552Z,96296.26
2019-05-21T23:59:00.025Z,96303.93
